sensor_id;sensor_type;location;lat;lon;timestamp;pressure;altitude;pressure_sealevel;temperature;humidity
62237;BME280;69163;48.778;2.308;2023-11-19T00:00:53;100750.87;;;16.20;45.07
62237;BME280;69163;48.778;2.308;2023-11-19T00:03:19;100759.52;;;16.26;44.98
62237;BME280;69163;48.778;2.308;2023-11-19T00:05:44;100761.60;;;16.24;44.98
62237;BME280;69163;48.778;2.308;2023-11-19T00:08:10;100755.48;;;16.21;45.10
62237;BME280;69163;48.778;2.308;2023-11-19T00:10:36;100755.14;;;16.16;45.12
62237;BME280;69163;48.778;2.308;2023-11-19T00:13:02;100775.53;;;16.16;45.12
62237;BME280;69163;48.778;2.308;2023-11-19T00:15:28;100772.82;;;16.37;45.20
62237;BME280;69163;48.778;2.308;2023-11-19T00:17:54;100769.17;;;16.37;45.15
62237;BME280;69163;48.778;2.308;2023-11-19T00:20:20;100770.97;;;16.16;45.16
62237;BME280;69163;48.778;2.308;2023-11-19T00:22:46;100763.42;;;16.22;45.08
62237;BME280;69163;48.778;2.308;2023-11-19T00:25:12;100767.18;;;15.98;45.07
62237;BME280;69163;48.778;2.308;2023-11-19T00:27:37;100757.64;;;16.44;45.10
62237;BME280;69163;48.778;2.308;2023-11-19T00:30:05;100761.14;;;16.46;45.08
62237;BME280;69163;48.778;2.308;2023-11-19T00:32:30;100765.24;;;16.18;45.15
62237;BME280;69163;48.778;2.308;2023-11-19T00:34:56;100755.26;;;16.17;45.18
62237;BME280;69163;48.778;2.308;2023-11-19T00:37:21;100754.01;;;15.98;45.11
62237;BME280;69163;48.778;2.308;2023-11-19T00:39:47;100740.24;;;15.73;45.12
62237;BME280;69163;48.778;2.308;2023-11-19T00:42:13;100744.99;;;16.21;45.12
62237;BME280;69163;48.778;2.308;2023-11-19T00:44:38;100744.72;;;16.20;45.15
62237;BME280;69163;48.778;2.308;2023-11-19T00:47:04;100737.78;;;16.46;45.13
62237;BME280;69163;48.778;2.308;2023-11-19T00:49:31;100744.27;;;16.20;45.12
62237;BME280;69163;48.778;2.308;2023-11-19T00:51:56;100746.29;;;15.74;45.10
62237;BME280;69163;48.778;2.308;2023-11-19T00:54:22;100737.26;;;16.00;45.08
62237;BME280;69163;48.778;2.308;2023-11-19T00:56:47;100738.51;;;16.01;45.07
62237;BME280;69163;48.778;2.308;2023-11-19T00:59:13;100740.48;;;16.01;45.10
62237;BME280;69163;48.778;2.308;2023-11-19T01:01:38;100744.65;;;16.23;45.11
62237;BME280;69163;48.778;2.308;2023-11-19T01:04:05;100746.83;;;16.26;45.06
62237;BME280;69163;48.778;2.308;2023-11-19T01:06:30;100748.69;;;16.28;45.03
62237;BME280;69163;48.778;2.308;2023-11-19T01:08:57;100748.66;;;16.29;45.04
62237;BME280;69163;48.778;2.308;2023-11-19T01:11:27;100748.08;;;16.25;45.07
62237;BME280;69163;48.778;2.308;2023-11-19T01:13:52;100741.96;;;16.50;45.07
62237;BME280;69163;48.778;2.308;2023-11-19T01:16:19;100741.86;;;16.05;45.04
62237;BME280;69163;48.778;2.308;2023-11-19T01:18:44;100735.53;;;16.73;45.08
62237;BME280;69163;48.778;2.308;2023-11-19T01:21:15;100743.52;;;16.26;44.99
62237;BME280;69163;48.778;2.308;2023-11-19T01:23:41;100747.48;;;16.29;45.05
62237;BME280;69163;48.778;2.308;2023-11-19T01:26:07;100739.57;;;16.03;45.07
62237;BME280;69163;48.778;2.308;2023-11-19T01:28:32;100733.73;;;16.28;45.06
62237;BME280;69163;48.778;2.308;2023-11-19T01:30:58;100736.42;;;16.26;45.11
62237;BME280;69163;48.778;2.308;2023-11-19T01:33:23;100742.12;;;16.04;45.12
62237;BME280;69163;48.778;2.308;2023-11-19T01:35:48;100743.25;;;16.28;45.10
62237;BME280;69163;48.778;2.308;2023-11-19T01:38:20;100743.18;;;16.31;45.05
62237;BME280;69163;48.778;2.308;2023-11-19T01:40:43;100750.18;;;16.31;45.05
62237;BME280;69163;48.778;2.308;2023-11-19T01:43:08;100746.91;;;16.25;45.16
62237;BME280;69163;48.778;2.308;2023-11-19T01:45:34;100750.00;;;16.30;45.06
62237;BME280;69163;48.778;2.308;2023-11-19T01:48:02;100752.32;;;16.47;45.18
62237;BME280;69163;48.778;2.308;2023-11-19T01:50:29;100747.88;;;16.27;45.13
62237;BME280;69163;48.778;2.308;2023-11-19T01:52:57;100747.41;;;16.27;45.12
62237;BME280;69163;48.778;2.308;2023-11-19T01:55:22;100746.84;;;16.49;45.16
62237;BME280;69163;48.778;2.308;2023-11-19T01:57:47;100753.60;;;15.78;45.15
62237;BME280;69163;48.778;2.308;2023-11-19T02:00:19;100755.93;;;16.30;45.10
62237;BME280;69163;48.778;2.308;2023-11-19T02:02:46;100754.01;;;16.27;45.12
62237;BME280;69163;48.778;2.308;2023-11-19T02:05:11;100754.15;;;16.37;45.00
62237;BME280;69163;48.778;2.308;2023-11-19T02:07:36;100750.14;;;16.34;45.05
62237;BME280;69163;48.778;2.308;2023-11-19T02:10:01;100737.08;;;16.35;45.02
62237;BME280;69163;48.778;2.308;2023-11-19T02:12:27;100736.50;;;16.07;45.10
62237;BME280;69163;48.778;2.308;2023-11-19T02:14:54;100740.70;;;16.33;45.09
62237;BME280;69163;48.778;2.308;2023-11-19T02:17:28;100738.02;;;15.83;45.09
62237;BME280;69163;48.778;2.308;2023-11-19T02:19:44;100737.26;;;16.36;45.03
62237;BME280;69163;48.778;2.308;2023-11-19T02:22:12;100733.96;;;16.34;44.99
62237;BME280;69163;48.778;2.308;2023-11-19T02:24:37;100740.12;;;16.59;45.07
62237;BME280;69163;48.778;2.308;2023-11-19T02:27:07;100734.80;;;16.32;45.11
62237;BME280;69163;48.778;2.308;2023-11-19T02:29:32;100733.98;;;16.57;45.08
62237;BME280;69163;48.778;2.308;2023-11-19T02:31:58;100732.34;;;16.06;45.12
62237;BME280;69163;48.778;2.308;2023-11-19T02:34:24;100728.61;;;16.28;45.14
62237;BME280;69163;48.778;2.308;2023-11-19T02:36:49;100731.57;;;16.36;45.05
62237;BME280;69163;48.778;2.308;2023-11-19T02:39:14;100730.57;;;16.09;45.09
62237;BME280;69163;48.778;2.308;2023-11-19T02:41:39;100734.85;;;16.59;45.09
62237;BME280;69163;48.778;2.308;2023-11-19T02:44:06;100734.04;;;16.12;45.03
62237;BME280;69163;48.778;2.308;2023-11-19T02:46:34;100733.88;;;16.07;45.10
62237;BME280;69163;48.778;2.308;2023-11-19T02:49:03;100734.00;;;16.35;45.07
62237;BME280;69163;48.778;2.308;2023-11-19T02:51:28;100730.75;;;16.30;45.12
62237;BME280;69163;48.778;2.308;2023-11-19T02:53:55;100735.88;;;16.35;45.09
62237;BME280;69163;48.778;2.308;2023-11-19T02:56:21;100737.11;;;16.39;45.02
62237;BME280;69163;48.778;2.308;2023-11-19T02:58:47;100733.12;;;16.32;45.09
62237;BME280;69163;48.778;2.308;2023-11-19T03:01:12;100727.48;;;16.36;45.02
62237;BME280;69163;48.778;2.308;2023-11-19T03:03:37;100729.61;;;15.84;45.10
62237;BME280;69163;48.778;2.308;2023-11-19T03:06:03;100725.79;;;16.14;45.00
62237;BME280;69163;48.778;2.308;2023-11-19T03:08:29;100721.16;;;16.36;45.04
62237;BME280;69163;48.778;2.308;2023-11-19T03:10:56;100718.45;;;16.37;45.03
62237;BME280;69163;48.778;2.308;2023-11-19T03:13:22;100719.09;;;16.14;45.01
62237;BME280;69163;48.778;2.308;2023-11-19T03:15:50;100714.60;;;16.12;45.03
62237;BME280;69163;48.778;2.308;2023-11-19T03:18:14;100711.33;;;16.36;45.04
62237;BME280;69163;48.778;2.308;2023-11-19T03:20:41;100710.79;;;16.34;45.05
62237;BME280;69163;48.778;2.308;2023-11-19T03:23:07;100714.19;;;16.35;45.05
62237;BME280;69163;48.778;2.308;2023-11-19T03:25:32;100713.60;;;16.37;45.03
62237;BME280;69163;48.778;2.308;2023-11-19T03:27:58;100718.84;;;16.40;44.99
62237;BME280;69163;48.778;2.308;2023-11-19T03:30:23;100718.47;;;15.93;44.95
62237;BME280;69163;48.778;2.308;2023-11-19T03:32:48;100720.19;;;16.19;44.91
62237;BME280;69163;48.778;2.308;2023-11-19T03:35:18;100713.13;;;16.24;44.83
62237;BME280;69163;48.778;2.308;2023-11-19T03:37:44;100711.69;;;16.67;44.90
62237;BME280;69163;48.778;2.308;2023-11-19T03:40:10;100710.90;;;16.41;44.91
62237;BME280;69163;48.778;2.308;2023-11-19T03:42:34;100710.31;;;15.94;44.93
62237;BME280;69163;48.778;2.308;2023-11-19T03:45:13;100713.37;;;16.37;45.01
62237;BME280;69163;48.778;2.308;2023-11-19T03:47:29;100711.28;;;16.14;44.98
62237;BME280;69163;48.778;2.308;2023-11-19T03:49:55;100714.10;;;15.90;44.99
62237;BME280;69163;48.778;2.308;2023-11-19T03:52:21;100717.31;;;16.41;44.98
62237;BME280;69163;48.778;2.308;2023-11-19T03:54:47;100717.43;;;16.35;45.01
62237;BME280;69163;48.778;2.308;2023-11-19T03:57:14;100717.61;;;16.39;44.99
62237;BME280;69163;48.778;2.308;2023-11-19T03:59:39;100721.98;;;16.16;44.98
62237;BME280;69163;48.778;2.308;2023-11-19T04:02:05;100722.59;;;16.67;44.92
62237;BME280;69163;48.778;2.308;2023-11-19T04:04:30;100717.94;;;16.41;44.93
62237;BME280;69163;48.778;2.308;2023-11-19T04:06:55;100722.11;;;16.41;44.94
62237;BME280;69163;48.778;2.308;2023-11-19T04:09:22;100720.38;;;16.42;44.94
62237;BME280;69163;48.778;2.308;2023-11-19T04:11:50;100715.95;;;16.42;44.90
62237;BME280;69163;48.778;2.308;2023-11-19T04:14:15;100718.57;;;16.43;44.90
62237;BME280;69163;48.778;2.308;2023-11-19T04:16:41;100718.55;;;16.40;44.96
62237;BME280;69163;48.778;2.308;2023-11-19T04:19:10;100717.35;;;16.16;44.94
62237;BME280;69163;48.778;2.308;2023-11-19T04:21:34;100712.53;;;16.43;44.90
62237;BME280;69163;48.778;2.308;2023-11-19T04:24:05;100715.46;;;16.62;44.96
62237;BME280;69163;48.778;2.308;2023-11-19T04:26:31;100723.78;;;16.41;44.95
62237;BME280;69163;48.778;2.308;2023-11-19T04:28:58;100721.90;;;16.41;44.93
62237;BME280;69163;48.778;2.308;2023-11-19T04:31:24;100723.20;;;16.43;44.90
62237;BME280;69163;48.778;2.308;2023-11-19T04:33:49;100724.66;;;16.67;44.88
62237;BME280;69163;48.778;2.308;2023-11-19T04:36:19;100726.07;;;16.44;44.85
62237;BME280;69163;48.778;2.308;2023-11-19T04:38:40;100722.93;;;16.42;44.89
62237;BME280;69163;48.778;2.308;2023-11-19T04:41:06;100722.17;;;16.22;44.85
62237;BME280;69163;48.778;2.308;2023-11-19T04:43:31;100712.37;;;16.39;44.94
62237;BME280;69163;48.778;2.308;2023-11-19T04:45:57;100708.14;;;16.44;44.86
62237;BME280;69163;48.778;2.308;2023-11-19T04:48:22;100707.99;;;16.64;44.90
62237;BME280;69163;48.778;2.308;2023-11-19T04:50:48;100713.24;;;16.17;44.92
62237;BME280;69163;48.778;2.308;2023-11-19T04:53:20;100721.67;;;16.20;44.85
62237;BME280;69163;48.778;2.308;2023-11-19T04:55:45;100722.13;;;16.47;44.78
62237;BME280;69163;48.778;2.308;2023-11-19T04:58:10;100723.17;;;16.48;44.78
62237;BME280;69163;48.778;2.308;2023-11-19T05:00:36;100727.53;;;16.21;44.81
62237;BME280;69163;48.778;2.308;2023-11-19T05:03:02;100731.97;;;16.45;44.82
62237;BME280;69163;48.778;2.308;2023-11-19T05:05:28;100731.97;;;16.47;44.79
62237;BME280;69163;48.778;2.308;2023-11-19T05:07:53;100733.80;;;16.22;44.79
62237;BME280;69163;48.778;2.308;2023-11-19T05:12:44;100738.88;;;16.46;44.80
62237;BME280;69163;48.778;2.308;2023-11-19T05:15:10;100738.08;;;16.43;44.82
62237;BME280;69163;48.778;2.308;2023-11-19T05:17:35;100737.31;;;16.21;44.78
62237;BME280;69163;48.778;2.308;2023-11-19T05:20:00;100739.08;;;16.52;44.70
62237;BME280;69163;48.778;2.308;2023-11-19T05:22:30;100739.10;;;16.49;44.72
62237;BME280;69163;48.778;2.308;2023-11-19T05:24:52;100740.38;;;16.48;44.75
62237;BME280;69163;48.778;2.308;2023-11-19T05:27:17;100741.93;;;16.03;44.71
62237;BME280;69163;48.778;2.308;2023-11-19T05:29:43;100746.32;;;16.47;44.73
62237;BME280;69163;48.778;2.308;2023-11-19T05:32:09;100750.72;;;16.26;44.71
62237;BME280;69163;48.778;2.308;2023-11-19T05:34:35;100755.39;;;16.24;44.74
62237;BME280;69163;48.778;2.308;2023-11-19T05:37:01;100760.23;;;16.43;44.79
62237;BME280;69163;48.778;2.308;2023-11-19T05:39:28;100761.67;;;16.46;44.72
62237;BME280;69163;48.778;2.308;2023-11-19T05:41:51;100759.77;;;16.43;44.79
62237;BME280;69163;48.778;2.308;2023-11-19T05:44:19;100760.17;;;16.22;44.73
62237;BME280;69163;48.778;2.308;2023-11-19T05:46:44;100761.71;;;16.42;44.82
62237;BME280;69163;48.778;2.308;2023-11-19T05:49:11;100763.58;;;16.44;44.79
62237;BME280;69163;48.778;2.308;2023-11-19T05:51:37;100764.49;;;16.43;44.80
62237;BME280;69163;48.778;2.308;2023-11-19T05:54:01;100763.11;;;15.96;44.77
62237;BME280;69163;48.778;2.308;2023-11-19T05:56:26;100763.27;;;16.44;44.75
62237;BME280;69163;48.778;2.308;2023-11-19T05:58:56;100766.94;;;16.47;44.70
62237;BME280;69163;48.778;2.308;2023-11-19T06:01:21;100764.58;;;16.45;44.72
62237;BME280;69163;48.778;2.308;2023-11-19T06:03:47;100764.42;;;16.47;44.70
62237;BME280;69163;48.778;2.308;2023-11-19T06:06:12;100764.83;;;16.22;44.71
62237;BME280;69163;48.778;2.308;2023-11-19T06:08:38;100760.32;;;15.97;44.69
62237;BME280;69163;48.778;2.308;2023-11-19T06:11:05;100760.13;;;16.47;44.68
62237;BME280;69163;48.778;2.308;2023-11-19T06:13:30;100758.72;;;16.25;44.61
62237;BME280;69163;48.778;2.308;2023-11-19T06:16:01;100758.88;;;16.53;44.57
62237;BME280;69163;48.778;2.308;2023-11-19T06:18:26;100765.52;;;16.24;44.62
62237;BME280;69163;48.778;2.308;2023-11-19T06:20:52;100766.14;;;16.50;44.58
62237;BME280;69163;48.778;2.308;2023-11-19T06:23:17;100767.11;;;16.05;44.54
62237;BME280;69163;48.778;2.308;2023-11-19T06:25:45;100768.53;;;16.24;44.59
62237;BME280;69163;48.778;2.308;2023-11-19T06:28:11;100775.37;;;16.26;44.57
62237;BME280;69163;48.778;2.308;2023-11-19T06:30:37;100777.82;;;16.02;44.54
62237;BME280;69163;48.778;2.308;2023-11-19T06:33:03;100777.72;;;16.56;44.54
62237;BME280;69163;48.778;2.308;2023-11-19T06:35:28;100787.36;;;16.51;44.51
62237;BME280;69163;48.778;2.308;2023-11-19T06:37:54;100787.91;;;16.31;44.47
62237;BME280;69163;48.778;2.308;2023-11-19T06:40:19;100791.74;;;16.56;44.43
62237;BME280;69163;48.778;2.308;2023-11-19T06:42:45;100793.95;;;16.58;44.39
62237;BME280;69163;48.778;2.308;2023-11-19T06:45:12;100797.30;;;16.52;44.46
62237;BME280;69163;48.778;2.308;2023-11-19T06:47:36;100797.98;;;16.58;44.36
62237;BME280;69163;48.778;2.308;2023-11-19T06:50:08;100796.26;;;16.54;44.45
62237;BME280;69163;48.778;2.308;2023-11-19T06:52:33;100798.22;;;16.51;44.46
62237;BME280;69163;48.778;2.308;2023-11-19T06:55:05;100794.04;;;16.53;44.43
62237;BME280;69163;48.778;2.308;2023-11-19T06:57:31;100794.86;;;16.55;44.35
62237;BME280;69163;48.778;2.308;2023-11-19T06:59:59;100797.78;;;16.55;44.34
62237;BME280;69163;48.778;2.308;2023-11-19T07:02:29;100800.65;;;16.55;44.34
62237;BME280;69163;48.778;2.308;2023-11-19T07:04:55;100805.53;;;16.50;44.42
62237;BME280;69163;48.778;2.308;2023-11-19T07:07:22;100804.02;;;16.53;44.34
62237;BME280;69163;48.778;2.308;2023-11-19T07:09:49;100803.13;;;16.53;44.36
62237;BME280;69163;48.778;2.308;2023-11-19T07:12:14;100803.92;;;16.52;44.35
62237;BME280;69163;48.778;2.308;2023-11-19T07:14:40;100801.51;;;16.78;44.29
62237;BME280;69163;48.778;2.308;2023-11-19T07:17:07;100801.16;;;16.27;44.34
62237;BME280;69163;48.778;2.308;2023-11-19T07:19:32;100808.10;;;16.07;44.29
62237;BME280;69163;48.778;2.308;2023-11-19T07:21:58;100803.07;;;16.53;44.39
62237;BME280;69163;48.778;2.308;2023-11-19T07:24:23;100807.84;;;16.58;44.23
62237;BME280;69163;48.778;2.308;2023-11-19T07:26:51;100808.97;;;16.55;44.30
62237;BME280;69163;48.778;2.308;2023-11-19T07:29:26;100806.92;;;17.00;44.33
62237;BME280;69163;48.778;2.308;2023-11-19T07:31:53;100805.49;;;16.29;44.28
62237;BME280;69163;48.778;2.308;2023-11-19T07:34:18;100809.94;;;16.56;44.22
62237;BME280;69163;48.778;2.308;2023-11-19T07:36:43;100805.87;;;16.53;44.25
62237;BME280;69163;48.778;2.308;2023-11-19T07:39:09;100810.28;;;16.05;44.28
62237;BME280;69163;48.778;2.308;2023-11-19T07:41:34;100810.89;;;16.56;44.22
62237;BME280;69163;48.778;2.308;2023-11-19T07:44:09;100805.12;;;16.56;44.20
62237;BME280;69163;48.778;2.308;2023-11-19T07:46:34;100806.42;;;16.55;44.16
62237;BME280;69163;48.778;2.308;2023-11-19T07:48:59;100813.16;;;16.31;44.18
62237;BME280;69163;48.778;2.308;2023-11-19T07:51:28;100817.41;;;16.55;44.17
62237;BME280;69163;48.778;2.308;2023-11-19T07:53:53;100816.89;;;16.56;44.18
62237;BME280;69163;48.778;2.308;2023-11-19T07:56:19;100819.81;;;16.58;44.16
62237;BME280;69163;48.778;2.308;2023-11-19T07:58:45;100816.90;;;16.60;44.07
62237;BME280;69163;48.778;2.308;2023-11-19T08:01:11;100818.73;;;16.37;44.09
62237;BME280;69163;48.778;2.308;2023-11-19T08:03:37;100821.65;;;16.57;44.11
62237;BME280;69163;48.778;2.308;2023-11-19T08:06:04;100829.86;;;16.59;44.11
62237;BME280;69163;48.778;2.308;2023-11-19T08:08:36;100831.79;;;16.36;44.09
62237;BME280;69163;48.778;2.308;2023-11-19T08:10:55;100832.18;;;16.33;44.11
62237;BME280;69163;48.778;2.308;2023-11-19T08:13:20;100828.72;;;16.33;44.11
62237;BME280;69163;48.778;2.308;2023-11-19T08:15:46;100823.25;;;16.13;44.08
62237;BME280;69163;48.778;2.308;2023-11-19T08:18:12;100820.58;;;16.10;44.12
62237;BME280;69163;48.778;2.308;2023-11-19T08:20:39;100826.83;;;16.33;44.15
62237;BME280;69163;48.778;2.308;2023-11-19T08:23:04;100830.77;;;16.55;44.13
62237;BME280;69163;48.778;2.308;2023-11-19T08:25:32;100826.59;;;16.56;44.13
62237;BME280;69163;48.778;2.308;2023-11-19T08:27:57;100829.71;;;16.32;44.11
62237;BME280;69163;48.778;2.308;2023-11-19T08:30:27;100836.80;;;16.57;44.13
62237;BME280;69163;48.778;2.308;2023-11-19T08:32:53;100841.77;;;16.58;44.08
62237;BME280;69163;48.778;2.308;2023-11-19T08:35:21;100841.58;;;16.57;44.09
62237;BME280;69163;48.778;2.308;2023-11-19T08:37:46;100842.09;;;16.58;44.09
62237;BME280;69163;48.778;2.308;2023-11-19T08:40:12;100842.24;;;16.54;44.15
62237;BME280;69163;48.778;2.308;2023-11-19T08:42:36;100846.75;;;16.33;44.12
62237;BME280;69163;48.778;2.308;2023-11-19T08:45:02;100848.89;;;16.57;44.06
62237;BME280;69163;48.778;2.308;2023-11-19T08:47:27;100850.93;;;16.57;44.09
62237;BME280;69163;48.778;2.308;2023-11-19T08:49:55;100855.02;;;16.37;44.02
62237;BME280;69163;48.778;2.308;2023-11-19T08:52:23;100855.09;;;16.82;44.05
62237;BME280;69163;48.778;2.308;2023-11-19T08:54:48;100857.86;;;16.57;44.06
62237;BME280;69163;48.778;2.308;2023-11-19T08:57:14;100865.95;;;16.61;43.99
62237;BME280;69163;48.778;2.308;2023-11-19T08:59:39;100867.55;;;16.58;44.06
62237;BME280;69163;48.778;2.308;2023-11-19T09:02:07;100873.71;;;16.57;44.08
62237;BME280;69163;48.778;2.308;2023-11-19T09:04:33;100871.76;;;16.80;44.06
62237;BME280;69163;48.778;2.308;2023-11-19T09:06:57;100870.39;;;16.59;44.00
62237;BME280;69163;48.778;2.308;2023-11-19T09:09:23;100879.30;;;16.14;43.95
62237;BME280;69163;48.778;2.308;2023-11-19T09:11:48;100876.71;;;16.59;44.02
62237;BME280;69163;48.778;2.308;2023-11-19T09:14:14;100879.06;;;16.63;43.94
62237;BME280;69163;48.778;2.308;2023-11-19T09:16:43;100876.80;;;16.58;44.07
62237;BME280;69163;48.778;2.308;2023-11-19T09:19:09;100882.21;;;16.37;43.97
62237;BME280;69163;48.778;2.308;2023-11-19T09:21:35;100879.33;;;16.57;44.02
62237;BME280;69163;48.778;2.308;2023-11-19T09:24:00;100887.81;;;16.61;43.94
62237;BME280;69163;48.778;2.308;2023-11-19T09:26:26;100890.73;;;16.11;43.97
62237;BME280;69163;48.778;2.308;2023-11-19T09:28:51;100891.26;;;16.57;44.02
62237;BME280;69163;48.778;2.308;2023-11-19T09:31:21;100888.26;;;16.61;43.89
62237;BME280;69163;48.778;2.308;2023-11-19T09:33:47;100882.42;;;16.59;43.97
62237;BME280;69163;48.778;2.308;2023-11-19T09:36:13;100888.19;;;16.09;44.02
62237;BME280;69163;48.778;2.308;2023-11-19T09:38:37;100890.03;;;16.38;43.94
62237;BME280;69163;48.778;2.308;2023-11-19T09:41:04;100879.43;;;16.39;43.86
62237;BME280;69163;48.778;2.308;2023-11-19T09:43:29;100880.82;;;16.14;43.89
62237;BME280;69163;48.778;2.308;2023-11-19T09:45:55;100881.29;;;16.58;43.98
62237;BME280;69163;48.778;2.308;2023-11-19T09:48:20;100884.78;;;16.60;43.95
62237;BME280;69163;48.778;2.308;2023-11-19T09:50:49;100882.96;;;16.37;43.95
62237;BME280;69163;48.778;2.308;2023-11-19T09:53:14;100878.03;;;16.34;43.99
62237;BME280;69163;48.778;2.308;2023-11-19T09:55:45;100872.83;;;16.59;43.98
62237;BME280;69163;48.778;2.308;2023-11-19T09:58:11;100873.57;;;16.58;44.03
62237;BME280;69163;48.778;2.308;2023-11-19T10:00:37;100883.04;;;16.81;44.05
62237;BME280;69163;48.778;2.308;2023-11-19T10:03:02;100879.12;;;16.56;44.03
62237;BME280;69163;48.778;2.308;2023-11-19T10:05:28;100881.08;;;16.34;43.97
62237;BME280;69163;48.778;2.308;2023-11-19T10:07:54;100884.11;;;16.55;44.02
62237;BME280;69163;48.778;2.308;2023-11-19T10:10:20;100882.22;;;16.58;43.96
62237;BME280;69163;48.778;2.308;2023-11-19T10:12:50;100888.73;;;16.57;43.98
62237;BME280;69163;48.778;2.308;2023-11-19T10:15:20;100892.91;;;16.16;43.91
62237;BME280;69163;48.778;2.308;2023-11-19T10:17:43;100894.33;;;16.58;43.94
62237;BME280;69163;48.778;2.308;2023-11-19T10:20:10;100890.09;;;16.62;43.87
62237;BME280;69163;48.778;2.308;2023-11-19T10:22:40;100891.38;;;16.39;43.89
62237;BME280;69163;48.778;2.308;2023-11-19T10:27:30;100884.69;;;16.63;43.82
62237;BME280;69163;48.778;2.308;2023-11-19T10:29:59;100883.46;;;16.33;43.86
62237;BME280;69163;48.778;2.308;2023-11-19T10:32:21;100877.28;;;16.39;43.77
62237;BME280;69163;48.778;2.308;2023-11-19T10:34:47;100874.40;;;16.65;43.78
62237;BME280;69163;48.778;2.308;2023-11-19T10:39:52;100865.01;;;16.35;43.81
62237;BME280;69163;48.778;2.308;2023-11-19T10:44:33;100856.70;;;16.62;43.72
62237;BME280;69163;48.778;2.308;2023-11-19T10:46:54;100855.21;;;16.34;43.79
62237;BME280;69163;48.778;2.308;2023-11-19T10:49:20;100865.37;;;16.37;43.75
62237;BME280;69163;48.778;2.308;2023-11-19T10:51:45;100864.70;;;16.11;43.74
62237;BME280;69163;48.778;2.308;2023-11-19T10:54:11;100865.06;;;16.61;43.67
62237;BME280;69163;48.778;2.308;2023-11-19T10:56:40;100855.96;;;16.30;43.77
62237;BME280;69163;48.778;2.308;2023-11-19T10:59:07;100854.66;;;16.78;43.74
62237;BME280;69163;48.778;2.308;2023-11-19T11:01:38;100855.58;;;16.56;43.77
62237;BME280;69163;48.778;2.308;2023-11-19T11:04:00;100848.45;;;16.08;43.76
62237;BME280;69163;48.778;2.308;2023-11-19T11:06:29;100845.16;;;16.16;43.65
62237;BME280;69163;48.778;2.308;2023-11-19T11:08:54;100837.27;;;16.64;43.61
62237;BME280;69163;48.778;2.308;2023-11-19T11:11:19;100836.79;;;16.61;43.61
62237;BME280;69163;48.778;2.308;2023-11-19T11:13:45;100841.17;;;16.58;43.64
62237;BME280;69163;48.778;2.308;2023-11-19T11:16:10;100847.02;;;16.85;43.64
62237;BME280;69163;48.778;2.308;2023-11-19T11:18:35;100839.09;;;16.15;43.60
62237;BME280;69163;48.778;2.308;2023-11-19T11:21:04;100834.54;;;16.37;43.61
62237;BME280;69163;48.778;2.308;2023-11-19T11:23:41;100827.69;;;16.57;43.65
62237;BME280;69163;48.778;2.308;2023-11-19T11:26:00;100840.00;;;16.37;43.65
62237;BME280;69163;48.778;2.308;2023-11-19T11:28:24;100847.25;;;16.63;43.63
62237;BME280;69163;48.778;2.308;2023-11-19T11:30:55;100855.58;;;16.63;43.63
62237;BME280;69163;48.778;2.308;2023-11-19T11:33:24;100847.15;;;16.37;43.59
62237;BME280;69163;48.778;2.308;2023-11-19T11:35:45;100848.03;;;16.62;43.59
62237;BME280;69163;48.778;2.308;2023-11-19T11:38:06;100840.19;;;16.60;43.55
62237;BME280;69163;48.778;2.308;2023-11-19T11:40:31;100841.08;;;16.64;43.51
62237;BME280;69163;48.778;2.308;2023-11-19T11:42:57;100852.74;;;16.18;43.55
62237;BME280;69163;48.778;2.308;2023-11-19T11:45:37;100846.10;;;16.64;43.55
62237;BME280;69163;48.778;2.308;2023-11-19T11:50:18;100841.28;;;16.82;43.48
62237;BME280;69163;48.778;2.308;2023-11-19T11:55:09;100843.14;;;16.35;43.54
62237;BME280;69163;48.778;2.308;2023-11-19T11:57:36;100836.67;;;16.66;43.45
62237;BME280;69163;48.778;2.308;2023-11-19T12:00:03;100832.12;;;16.40;43.39
62237;BME280;69163;48.778;2.308;2023-11-19T12:02:26;100828.28;;;16.17;43.22
62237;BME280;69163;48.778;2.308;2023-11-19T12:04:53;100829.38;;;16.65;43.27
62237;BME280;69163;48.778;2.308;2023-11-19T12:07:21;100824.25;;;16.37;43.31
62237;BME280;69163;48.778;2.308;2023-11-19T12:09:49;100830.83;;;16.64;43.31
62237;BME280;69163;48.778;2.308;2023-11-19T12:12:19;100826.06;;;16.60;43.43
62237;BME280;69163;48.778;2.308;2023-11-19T12:19:30;100821.85;;;16.41;43.32
62237;BME280;69163;48.778;2.308;2023-11-19T12:21:55;100821.51;;;16.62;43.34
62237;BME280;69163;48.778;2.308;2023-11-19T12:24:22;100819.25;;;16.39;43.32
62237;BME280;69163;48.778;2.308;2023-11-19T12:26:47;100818.56;;;16.63;43.32
62237;BME280;69163;48.778;2.308;2023-11-19T12:29:13;100826.65;;;16.64;43.33
62237;BME280;69163;48.778;2.308;2023-11-19T12:31:38;100823.79;;;16.84;43.34
62237;BME280;69163;48.778;2.308;2023-11-19T12:34:08;100822.60;;;16.61;43.33
62237;BME280;69163;48.778;2.308;2023-11-19T12:36:29;100824.86;;;16.61;43.21
62237;BME280;69163;48.778;2.308;2023-11-19T12:38:55;100824.95;;;16.37;43.13
62237;BME280;69163;48.778;2.308;2023-11-19T12:41:20;100822.40;;;16.40;43.15
62237;BME280;69163;48.778;2.308;2023-11-19T12:43:46;100823.14;;;16.61;43.15
62237;BME280;69163;48.778;2.308;2023-11-19T12:46:19;100813.24;;;16.60;43.11
62237;BME280;69163;48.778;2.308;2023-11-19T12:48:44;100806.68;;;16.84;43.02
62237;BME280;69163;48.778;2.308;2023-11-19T12:51:09;100818.62;;;16.57;43.17
62237;BME280;69163;48.778;2.308;2023-11-19T12:56:07;100815.36;;;16.37;43.11
62237;BME280;69163;48.778;2.308;2023-11-19T12:58:29;100820.56;;;16.64;43.04
62237;BME280;69163;48.778;2.308;2023-11-19T13:01:01;100823.72;;;16.40;43.04
62237;BME280;69163;48.778;2.308;2023-11-19T13:05:43;100821.34;;;16.18;42.97
62237;BME280;69163;48.778;2.308;2023-11-19T13:08:10;100819.60;;;16.18;42.90